Time;durP1;ratioP1;P1;durP2;ratioP2;P2;SDS_P1;SDS_P2;PMS_P1;PMS_P2;Temp;Humidity;BMP_temperature;BMP_pressure;BME280_temperature;BME280_humidity;BME280_pressure;Samples;Min_cycle;Max_cycle;Signal;HPM_P1;HPM_P2
2023/07/13 00:00:42;;;;;;;5.53;1.30;;;;;;;;;;5053593;28;20027;-77
2023/07/13 00:03:07;;;;;;;2.28;1.17;;;;;;;;;;5035704;28;20458;-77
2023/07/13 00:05:33;;;;;;;3.28;1.27;;;;;;;;;;5035739;28;20116;-77
2023/07/13 00:07:58;;;;;;;2.83;1.17;;;;;;;;;;5035603;28;20499;-77
2023/07/13 00:10:24;;;;;;;2.53;1.20;;;;;;;;;;5035992;28;20069;-77
2023/07/13 00:12:49;;;;;;;3.00;1.30;;;;;;;;;;5053622;28;20028;-78
2023/07/13 00:15:22;;;;;;;4.82;1.38;;;;;;;;;;5053362;28;20127;-77
2023/07/13 00:17:51;;;;;;;1.60;1.10;;;;;;;;;;5052506;28;20093;-77
2023/07/13 00:20:17;;;;;;;3.92;1.20;;;;;;;;;;5035483;28;20043;-77
2023/07/13 00:22:43;;;;;;;3.95;1.30;;;;;;;;;;5052426;28;20017;-77
2023/07/13 00:25:10;;;;;;;2.67;1.10;;;;;;;;;;5053154;28;20024;-77
2023/07/13 00:27:36;;;;;;;3.17;1.63;;;;;;;;;;5035220;28;20099;-77
2023/07/13 00:30:02;;;;;;;3.17;1.35;;;;;;;;;;5053475;28;20472;-78
2023/07/13 00:32:29;;;;;;;4.03;1.40;;;;;;;;;;5035867;28;20033;-78
2023/07/13 00:34:55;;;;;;;7.35;1.85;;;;;;;;;;5035299;28;20033;-78
2023/07/13 00:37:20;;;;;;;2.88;1.23;;;;;;;;;;5018952;28;20025;-78
2023/07/13 00:39:46;;;;;;;5.95;1.25;;;;;;;;;;5053097;28;20029;-77
2023/07/13 00:42:11;;;;;;;3.80;1.30;;;;;;;;;;5053124;28;20033;-77
2023/07/13 00:44:39;;;;;;;5.97;1.65;;;;;;;;;;5035224;28;20131;-78
2023/07/13 00:47:04;;;;;;;2.83;1.60;;;;;;;;;;5019117;28;20025;-78
2023/07/13 00:49:32;;;;;;;4.03;1.42;;;;;;;;;;5053346;28;20035;-77
2023/07/13 00:52:02;;;;;;;4.32;1.40;;;;;;;;;;5051848;28;20116;-77
2023/07/13 00:54:34;;;;;;;7.57;1.52;;;;;;;;;;5053371;28;20071;-77
2023/07/13 00:57:02;;;;;;;4.82;1.50;;;;;;;;;;5035675;28;20033;-77
2023/07/13 00:59:28;;;;;;;3.67;1.08;;;;;;;;;;5056127;28;20025;-77
2023/07/13 01:01:54;;;;;;;2.15;1.23;;;;;;;;;;5055790;28;20071;-77
2023/07/13 01:04:19;;;;;;;3.05;1.10;;;;;;;;;;5038952;28;20029;-77
2023/07/13 01:06:46;;;;;;;1.38;1.10;;;;;;;;;;5039354;28;20037;-77
2023/07/13 01:09:13;;;;;;;3.55;1.30;;;;;;;;;;5039142;28;20021;-77
2023/07/13 01:11:39;;;;;;;2.00;1.10;;;;;;;;;;5056029;28;20031;-77
2023/07/13 01:14:04;;;;;;;1.75;1.10;;;;;;;;;;5055583;28;20029;-77
2023/07/13 01:16:34;;;;;;;3.35;1.70;;;;;;;;;;5038892;28;20032;-77
2023/07/13 01:19:01;;;;;;;3.13;1.30;;;;;;;;;;5055427;28;20029;-77
2023/07/13 01:21:28;;;;;;;1.65;1.00;;;;;;;;;;5055759;28;20024;-77
2023/07/13 01:23:53;;;;;;;2.53;1.05;;;;;;;;;;5055486;28;20086;-77
2023/07/13 01:26:19;;;;;;;2.10;0.80;;;;;;;;;;5038966;28;20422;-76
2023/07/13 01:28:44;;;;;;;2.28;1.25;;;;;;;;;;5056245;28;20049;-77
2023/07/13 01:31:10;;;;;;;2.78;1.00;;;;;;;;;;5056349;28;20059;-77
2023/07/13 01:33:39;;;;;;;2.13;1.33;;;;;;;;;;5038456;28;20459;-77
2023/07/13 01:36:05;;;;;;;2.75;1.13;;;;;;;;;;5038455;28;20025;-77
2023/07/13 01:38:31;;;;;;;1.50;1.00;;;;;;;;;;5056099;28;20049;-77
2023/07/13 01:40:56;;;;;;;2.33;1.30;;;;;;;;;;5038720;28;20083;-77
2023/07/13 01:43:22;;;;;;;1.90;1.00;;;;;;;;;;5056175;28;20468;-77
2023/07/13 01:45:47;;;;;;;1.83;0.80;;;;;;;;;;5038891;28;20056;-77
2023/07/13 01:48:13;;;;;;;1.92;1.20;;;;;;;;;;5054896;28;20033;-77
2023/07/13 01:50:38;;;;;;;2.30;1.02;;;;;;;;;;5038062;28;20021;-77
2023/07/13 01:53:04;;;;;;;2.28;1.25;;;;;;;;;;5038057;28;20086;-77
2023/07/13 01:55:31;;;;;;;2.17;1.20;;;;;;;;;;5054836;28;20395;-77
2023/07/13 01:57:56;;;;;;;2.33;1.00;;;;;;;;;;5038017;28;20029;-77
2023/07/13 02:00:22;;;;;;;3.75;1.20;;;;;;;;;;5021592;28;20044;-78
2023/07/13 02:02:47;;;;;;;1.95;1.15;;;;;;;;;;5037876;28;20035;-77
2023/07/13 02:05:13;;;;;;;3.75;1.40;;;;;;;;;;5056068;28;20495;-77
2023/07/13 02:07:39;;;;;;;3.00;1.38;;;;;;;;;;5054522;28;20400;-77
2023/07/13 02:10:06;;;;;;;1.40;0.98;;;;;;;;;;5037889;28;20025;-77
2023/07/13 02:12:33;;;;;;;2.58;1.08;;;;;;;;;;5054944;28;20025;-77
2023/07/13 02:14:59;;;;;;;1.60;1.23;;;;;;;;;;5037633;28;20032;-77
2023/07/13 02:17:26;;;;;;;3.38;1.40;;;;;;;;;;5038021;28;20037;-78
2023/07/13 02:19:51;;;;;;;2.67;1.10;;;;;;;;;;5054298;28;20021;-77
2023/07/13 02:22:17;;;;;;;3.70;1.40;;;;;;;;;;5055710;28;20087;-77
2023/07/13 02:24:42;;;;;;;2.90;1.10;;;;;;;;;;5037775;28;20074;-77
2023/07/13 02:27:07;;;;;;;2.90;1.25;;;;;;;;;;5037272;28;20404;-77
2023/07/13 02:29:33;;;;;;;3.28;1.00;;;;;;;;;;5037561;28;20078;-78
2023/07/13 02:31:58;;;;;;;1.42;0.90;;;;;;;;;;5055415;28;20112;-77
2023/07/13 02:34:24;;;;;;;2.33;1.20;;;;;;;;;;5037352;28;20036;-77
2023/07/13 02:36:49;;;;;;;1.23;1.00;;;;;;;;;;5037684;28;20082;-77
2023/07/13 02:39:15;;;;;;;1.63;1.05;;;;;;;;;;5055479;28;20108;-76
2023/07/13 02:41:40;;;;;;;1.15;0.80;;;;;;;;;;5037220;28;20070;-76
2023/07/13 02:44:07;;;;;;;3.05;1.13;;;;;;;;;;5055048;28;20033;-76
2023/07/13 02:46:33;;;;;;;1.83;1.02;;;;;;;;;;5037439;28;20036;-76
2023/07/13 02:48:59;;;;;;;1.42;0.93;;;;;;;;;;5054059;28;20100;-77
2023/07/13 02:51:25;;;;;;;2.75;1.20;;;;;;;;;;5054979;28;20112;-76
2023/07/13 02:53:50;;;;;;;1.83;1.15;;;;;;;;;;5053900;28;20031;-76
2023/07/13 02:56:15;;;;;;;2.25;1.10;;;;;;;;;;5053603;28;20116;-77
2023/07/13 02:58:41;;;;;;;2.35;1.00;;;;;;;;;;5037495;28;20041;-77
2023/07/13 03:01:12;;;;;;;3.08;1.10;;;;;;;;;;5054967;28;20214;-77
2023/07/13 03:03:37;;;;;;;1.17;0.93;;;;;;;;;;5053429;28;20108;-76
2023/07/13 03:06:05;;;;;;;2.88;1.08;;;;;;;;;;5037174;28;20104;-77
2023/07/13 03:08:30;;;;;;;2.03;1.05;;;;;;;;;;5053717;28;20024;-77
2023/07/13 03:11:04;;;;;;;2.40;1.30;;;;;;;;;;5054542;28;20108;-77
2023/07/13 03:13:30;;;;;;;2.63;1.25;;;;;;;;;;5036497;28;20553;-77
2023/07/13 03:15:55;;;;;;;2.22;1.20;;;;;;;;;;5054401;28;20040;-77
2023/07/13 03:18:21;;;;;;;2.55;0.95;;;;;;;;;;5053469;28;20078;-78
2023/07/13 03:20:46;;;;;;;1.88;1.08;;;;;;;;;;5019613;28;20033;-77
2023/07/13 03:23:12;;;;;;;1.55;0.90;;;;;;;;;;5036745;28;20044;-78
2023/07/13 03:25:37;;;;;;;2.22;1.00;;;;;;;;;;5036650;28;20071;-77
2023/07/13 03:28:04;;;;;;;1.55;0.90;;;;;;;;;;5054156;28;20049;-78
2023/07/13 03:30:29;;;;;;;3.42;1.23;;;;;;;;;;5054349;28;20024;-78
2023/07/13 03:32:55;;;;;;;2.63;1.20;;;;;;;;;;5054005;28;20031;-77
2023/07/13 03:35:20;;;;;;;2.72;1.38;;;;;;;;;;5036354;28;20037;-77
2023/07/13 03:37:45;;;;;;;2.55;1.10;;;;;;;;;;5036098;28;20039;-77
2023/07/13 03:40:12;;;;;;;1.77;1.00;;;;;;;;;;5035799;28;20041;-76
2023/07/13 03:42:37;;;;;;;3.15;1.10;;;;;;;;;;5053935;28;20065;-76
2023/07/13 03:45:03;;;;;;;2.42;1.17;;;;;;;;;;5053987;28;20032;-76
2023/07/13 03:47:28;;;;;;;2.05;1.10;;;;;;;;;;5052437;28;20036;-76
2023/07/13 03:49:54;;;;;;;3.10;1.20;;;;;;;;;;5035731;28;20025;-77
2023/07/13 03:52:19;;;;;;;1.92;1.10;;;;;;;;;;5035679;28;20082;-77
2023/07/13 03:54:45;;;;;;;2.00;1.08;;;;;;;;;;5053669;28;20056;-76
2023/07/13 03:57:10;;;;;;;1.85;1.10;;;;;;;;;;5053491;28;20112;-77
2023/07/13 03:59:36;;;;;;;2.53;1.15;;;;;;;;;;5053477;28;20028;-76
2023/07/13 04:02:04;;;;;;;2.22;1.35;;;;;;;;;;5035698;28;20049;-77
2023/07/13 04:04:30;;;;;;;1.58;1.00;;;;;;;;;;5052229;28;20051;-77
2023/07/13 04:06:58;;;;;;;3.42;1.25;;;;;;;;;;5035793;28;20025;-78
2023/07/13 04:09:24;;;;;;;3.85;1.30;;;;;;;;;;5035741;28;20399;-78
2023/07/13 04:11:49;;;;;;;4.88;1.20;;;;;;;;;;5035675;28;20020;-78
2023/07/13 04:14:14;;;;;;;2.80;1.33;;;;;;;;;;5053355;28;20511;-78
2023/07/13 04:16:40;;;;;;;2.80;1.23;;;;;;;;;;5035712;28;20037;-78
2023/07/13 04:19:05;;;;;;;1.92;1.30;;;;;;;;;;5053431;28;20060;-77
2023/07/13 04:21:31;;;;;;;2.70;1.30;;;;;;;;;;5053636;28;20040;-77
2023/07/13 04:23:56;;;;;;;4.75;1.65;;;;;;;;;;5035634;28;20464;-76
2023/07/13 04:26:22;;;;;;;5.50;1.70;;;;;;;;;;5036084;28;20094;-75
2023/07/13 04:28:48;;;;;;;5.85;1.40;;;;;;;;;;5053604;28;20053;-75
2023/07/13 04:31:14;;;;;;;3.22;1.48;;;;;;;;;;5053260;28;20041;-76
2023/07/13 04:33:39;;;;;;;7.03;2.38;;;;;;;;;;5035728;28;20036;-77
2023/07/13 04:36:05;;;;;;;2.80;1.52;;;;;;;;;;5035596;28;20539;-77
2023/07/13 04:38:32;;;;;;;2.80;1.40;;;;;;;;;;5052049;28;20024;-76
2023/07/13 04:41:03;;;;;;;4.30;1.50;;;;;;;;;;5050752;28;20162;-76
2023/07/13 04:43:30;;;;;;;4.13;1.38;;;;;;;;;;5034887;28;20077;-76
2023/07/13 04:45:56;;;;;;;4.35;1.42;;;;;;;;;;5052572;28;20388;-77
2023/07/13 04:48:21;;;;;;;3.95;1.38;;;;;;;;;;5034830;28;20029;-78
2023/07/13 04:50:47;;;;;;;3.05;1.40;;;;;;;;;;5034649;28;20091;-77
2023/07/13 04:53:13;;;;;;;3.13;1.50;;;;;;;;;;5052343;28;20529;-76
2023/07/13 04:55:39;;;;;;;6.68;1.60;;;;;;;;;;5051086;28;20033;-76
2023/07/13 04:58:04;;;;;;;6.60;1.75;;;;;;;;;;5052389;28;20087;-76
2023/07/13 05:00:30;;;;;;;2.85;1.27;;;;;;;;;;5051044;28;20087;-76
2023/07/13 05:02:57;;;;;;;2.40;1.38;;;;;;;;;;5051031;28;20021;-77
2023/07/13 05:05:23;;;;;;;4.75;1.80;;;;;;;;;;5035071;28;20029;-76
2023/07/13 05:07:48;;;;;;;6.05;1.85;;;;;;;;;;5051929;28;20024;-77
2023/07/13 05:10:14;;;;;;;3.97;1.80;;;;;;;;;;5035062;28;20032;-77
2023/07/13 05:12:39;;;;;;;4.72;1.67;;;;;;;;;;5034999;28;20064;-77
2023/07/13 05:15:05;;;;;;;4.43;1.77;;;;;;;;;;5035302;28;20036;-77
2023/07/13 05:17:31;;;;;;;7.43;2.30;;;;;;;;;;5051933;28;20025;-77
2023/07/13 05:19:56;;;;;;;5.75;1.80;;;;;;;;;;5034972;28;20040;-78
2023/07/13 05:22:21;;;;;;;10.00;1.60;;;;;;;;;;5052737;28;20472;-77
2023/07/13 05:24:47;;;;;;;3.65;1.73;;;;;;;;;;5051591;28;20037;-77
2023/07/13 05:27:12;;;;;;;3.55;1.55;;;;;;;;;;5052449;28;20044;-77
2023/07/13 05:29:38;;;;;;;5.00;1.50;;;;;;;;;;5035017;28;20475;-77
2023/07/13 05:32:04;;;;;;;6.07;2.15;;;;;;;;;;5052957;28;20025;-77
2023/07/13 05:34:29;;;;;;;3.10;1.50;;;;;;;;;;5051844;28;20035;-78
2023/07/13 05:36:55;;;;;;;5.55;2.08;;;;;;;;;;5052991;28;20055;-77
2023/07/13 05:39:20;;;;;;;5.72;1.92;;;;;;;;;;5035079;28;20067;-77
2023/07/13 05:41:46;;;;;;;7.25;1.70;;;;;;;;;;5052708;28;20052;-78
2023/07/13 05:44:11;;;;;;;3.97;1.85;;;;;;;;;;5055309;28;20033;-77
2023/07/13 05:46:36;;;;;;;3.20;1.60;;;;;;;;;;5056831;28;20033;-78
2023/07/13 05:49:03;;;;;;;5.40;1.60;;;;;;;;;;5056605;28;20116;-78
2023/07/13 05:51:28;;;;;;;3.42;1.67;;;;;;;;;;5054982;28;20392;-77
2023/07/13 05:53:54;;;;;;;5.15;1.95;;;;;;;;;;5055921;28;20029;-77
2023/07/13 05:56:19;;;;;;;3.63;1.58;;;;;;;;;;5021388;28;20037;-77
2023/07/13 05:58:44;;;;;;;2.88;1.40;;;;;;;;;;5038177;28;20495;-78
2023/07/13 06:01:12;;;;;;;5.63;2.15;;;;;;;;;;5056144;28;20467;-77
2023/07/13 06:03:38;;;;;;;3.53;1.70;;;;;;;;;;5054736;28;20104;-78
2023/07/13 06:06:04;;;;;;;4.93;1.60;;;;;;;;;;5056099;28;20600;-78
2023/07/13 06:08:30;;;;;;;4.72;1.58;;;;;;;;;;5054588;28;20029;-77
2023/07/13 06:11:02;;;;;;;2.38;1.58;;;;;;;;;;5037968;28;20120;-78
2023/07/13 06:13:28;;;;;;;3.65;1.73;;;;;;;;;;5054343;28;20388;-78
2023/07/13 06:15:53;;;;;;;5.00;1.88;;;;;;;;;;5055645;28;20036;-78
2023/07/13 06:18:18;;;;;;;3.63;1.67;;;;;;;;;;5037684;28;20053;-77
2023/07/13 06:20:44;;;;;;;3.95;1.73;;;;;;;;;;5054590;28;20033;-77
2023/07/13 06:23:09;;;;;;;3.08;1.77;;;;;;;;;;5054290;28;20031;-77
2023/07/13 06:25:34;;;;;;;4.50;2.00;;;;;;;;;;5037570;28;20025;-76
2023/07/13 06:28:00;;;;;;;3.88;2.00;;;;;;;;;;5037497;28;20147;-76
2023/07/13 06:30:26;;;;;;;4.68;2.00;;;;;;;;;;5055298;28;20028;-76
2023/07/13 06:32:52;;;;;;;3.22;1.77;;;;;;;;;;5020713;28;20070;-77
2023/07/13 06:35:17;;;;;;;4.13;1.70;;;;;;;;;;5037403;28;20032;-77
2023/07/13 06:37:43;;;;;;;4.30;1.98;;;;;;;;;;5037374;28;20036;-76
2023/07/13 06:40:09;;;;;;;3.13;1.50;;;;;;;;;;5037360;28;20082;-77
2023/07/13 06:42:34;;;;;;;5.63;1.92;;;;;;;;;;5053905;28;20086;-77
2023/07/13 06:44:59;;;;;;;3.05;1.60;;;;;;;;;;5055578;28;20029;-77
2023/07/13 06:47:25;;;;;;;4.47;1.95;;;;;;;;;;5053797;28;20337;-77
2023/07/13 06:49:50;;;;;;;5.65;2.03;;;;;;;;;;5037078;28;20051;-77
2023/07/13 06:52:15;;;;;;;4.28;1.80;;;;;;;;;;5054763;28;20021;-76
2023/07/13 06:54:41;;;;;;;2.55;1.48;;;;;;;;;;5036355;28;20039;-76
2023/07/13 06:57:07;;;;;;;3.65;1.75;;;;;;;;;;5036943;28;20040;-77
2023/07/13 06:59:32;;;;;;;3.03;1.75;;;;;;;;;;5054934;28;20083;-77
2023/07/13 07:01:58;;;;;;;5.75;2.58;;;;;;;;;;5054688;28;20037;-77
2023/07/13 07:04:23;;;;;;;3.80;1.92;;;;;;;;;;5020280;28;20438;-77
2023/07/13 07:06:48;;;;;;;4.70;1.70;;;;;;;;;;5053933;28;20099;-77
2023/07/13 07:09:16;;;;;;;3.25;1.67;;;;;;;;;;5054764;28;20021;-77
2023/07/13 07:11:42;;;;;;;4.78;2.05;;;;;;;;;;5036566;28;20409;-77
2023/07/13 07:14:07;;;;;;;4.15;1.98;;;;;;;;;;5020775;28;20033;-77
2023/07/13 07:16:32;;;;;;;4.72;2.17;;;;;;;;;;5036590;28;20503;-77
2023/07/13 07:18:58;;;;;;;3.30;1.95;;;;;;;;;;5036495;28;20064;-77
2023/07/13 07:21:23;;;;;;;3.50;1.75;;;;;;;;;;5054901;28;20040;-77
2023/07/13 07:23:49;;;;;;;4.95;1.95;;;;;;;;;;5054207;28;20135;-77
2023/07/13 07:26:14;;;;;;;6.75;2.13;;;;;;;;;;5036080;28;20499;-77
2023/07/13 07:28:40;;;;;;;4.35;1.95;;;;;;;;;;5052877;28;20077;-77
2023/07/13 07:31:05;;;;;;;5.88;2.05;;;;;;;;;;5020058;28;20025;-77
2023/07/13 07:33:33;;;;;;;3.65;1.88;;;;;;;;;;5036519;28;20021;-77
2023/07/13 07:35:58;;;;;;;4.00;1.85;;;;;;;;;;5054049;28;20028;-76
2023/07/13 07:38:23;;;;;;;5.72;1.98;;;;;;;;;;5053146;28;20046;-77
2023/07/13 07:40:49;;;;;;;4.70;1.90;;;;;;;;;;5052777;28;20116;-77
2023/07/13 07:43:14;;;;;;;4.13;1.92;;;;;;;;;;5019634;28;20036;-77
2023/07/13 07:45:40;;;;;;;4.38;2.13;;;;;;;;;;5054164;28;20025;-77
2023/07/13 07:48:06;;;;;;;4.50;2.13;;;;;;;;;;5036346;28;20029;-77
2023/07/13 07:50:32;;;;;;;4.72;2.42;;;;;;;;;;5052848;28;20071;-76
2023/07/13 07:52:57;;;;;;;5.88;2.38;;;;;;;;;;5053048;28;20147;-77
2023/07/13 07:55:25;;;;;;;3.83;2.00;;;;;;;;;;5019584;28;20040;-76
2023/07/13 07:57:51;;;;;;;4.22;2.08;;;;;;;;;;5052577;28;20056;-77
2023/07/13 08:00:17;;;;;;;3.15;1.73;;;;;;;;;;5053226;28;20075;-77
2023/07/13 08:02:44;;;;;;;5.22;2.28;;;;;;;;;;5053920;28;20047;-77
2023/07/13 08:05:09;;;;;;;6.55;2.20;;;;;;;;;;5036460;28;20087;-77
2023/07/13 08:07:37;;;;;;;5.75;2.10;;;;;;;;;;5036236;28;20464;-77
2023/07/13 08:10:03;;;;;;;5.50;2.00;;;;;;;;;;5054420;28;20108;-77
2023/07/13 08:12:28;;;;;;;6.03;2.08;;;;;;;;;;5053365;28;20111;-76
2023/07/13 08:14:57;;;;;;;4.78;1.80;;;;;;;;;;5035496;28;20033;-75
2023/07/13 08:17:23;;;;;;;4.35;1.90;;;;;;;;;;5052482;28;20025;-75
2023/07/13 08:19:50;;;;;;;3.72;2.03;;;;;;;;;;5053312;28;20103;-76
2023/07/13 08:22:16;;;;;;;4.50;1.85;;;;;;;;;;5053622;28;20078;-76
2023/07/13 08:24:44;;;;;;;3.40;1.88;;;;;;;;;;5052185;28;20036;-76
2023/07/13 08:27:13;;;;;;;5.90;2.13;;;;;;;;;;5051878;28;20025;-76
2023/07/13 08:29:39;;;;;;;6.10;2.40;;;;;;;;;;5035198;28;20060;-76
2023/07/13 08:32:06;;;;;;;4.53;1.90;;;;;;;;;;5035324;28;20021;-76
2023/07/13 08:34:31;;;;;;;4.70;2.05;;;;;;;;;;5052282;28;20028;-76
2023/07/13 08:36:57;;;;;;;4.30;2.08;;;;;;;;;;5052241;28;20025;-76
2023/07/13 08:39:22;;;;;;;5.63;1.92;;;;;;;;;;5053532;28;20056;-75
2023/07/13 08:41:50;;;;;;;4.13;2.10;;;;;;;;;;5053185;28;20395;-75
2023/07/13 08:44:27;;;;;;;4.75;1.85;;;;;;;;;;5035329;28;20024;-76
2023/07/13 08:46:54;;;;;;;5.43;2.20;;;;;;;;;;5052272;28;20481;-76
2023/07/13 08:49:22;;;;;;;3.45;1.77;;;;;;;;;;5035162;28;20033;-76
2023/07/13 08:51:53;;;;;;;4.43;1.70;;;;;;;;;;5052936;28;20083;-74
2023/07/13 08:54:33;;;;;;;3.25;1.80;;;;;;;;;;5035515;28;20082;-75
2023/07/13 08:57:18;;;;;;;3.72;1.90;;;;;;;;;;5051931;28;20038;-75
2023/07/13 08:59:44;;;;;;;3.28;2.03;;;;;;;;;;5035192;28;20057;-75
2023/07/13 09:02:28;;;;;;;3.95;2.08;;;;;;;;;;5053400;28;20484;-75
2023/07/13 09:04:54;;;;;;;;;;;;;;;;;;5035480;28;20053;-75
2023/07/13 09:07:30;;;;;;;2.10;1.50;;;;;;;;;;5035704;28;19990;-75
2023/07/13 09:10:02;;;;;;;4.13;1.75;;;;;;;;;;5053234;28;20380;-75
2023/07/13 09:12:55;;;;;;;3.92;1.73;;;;;;;;;;5034998;28;20036;-75
2023/07/13 09:15:31;;;;;;;3.35;2.00;;;;;;;;;;5035225;28;20436;-75
2023/07/13 09:18:01;;;;;;;4.05;1.73;;;;;;;;;;5052346;28;20027;-76
2023/07/13 09:20:42;;;;;;;6.07;2.40;;;;;;;;;;5055729;28;20029;-76
2023/07/13 09:23:13;;;;;;;2.63;1.95;;;;;;;;;;5056558;28;20476;-75
2023/07/13 09:25:40;;;;;;;3.95;1.77;;;;;;;;;;5057059;28;20033;-75
2023/07/13 09:28:19;;;;;;;3.00;1.65;;;;;;;;;;5038439;28;20147;-75
2023/07/13 09:30:58;;;;;;;4.40;1.65;;;;;;;;;;5055302;28;20043;-75
2023/07/13 09:33:24;;;;;;;4.40;1.90;;;;;;;;;;5055461;28;20043;-75
2023/07/13 09:35:50;;;;;;;2.63;1.38;;;;;;;;;;5056297;28;20028;-75
2023/07/13 09:38:18;;;;;;;2.10;1.40;;;;;;;;;;5038310;28;20472;-75
2023/07/13 09:40:48;;;;;;;3.50;1.50;;;;;;;;;;5054952;28;20103;-76
2023/07/13 09:43:15;;;;;;;3.03;1.50;;;;;;;;;;5021983;28;20021;-75
2023/07/13 09:45:40;;;;;;;3.25;1.77;;;;;;;;;;5038444;28;20426;-76
2023/07/13 09:48:13;;;;;;;3.78;2.20;;;;;;;;;;5038243;28;20033;-76
2023/07/13 09:50:39;;;;;;;7.88;2.00;;;;;;;;;;5038365;28;20037;-76
2023/07/13 09:53:17;;;;;;;4.82;1.77;;;;;;;;;;5038520;28;20039;-75
2023/07/13 09:55:47;;;;;;;2.95;1.50;;;;;;;;;;5038113;28;20025;-75
2023/07/13 09:58:19;;;;;;;4.82;1.60;;;;;;;;;;5055881;28;20484;-75
2023/07/13 10:00:54;;;;;;;2.20;1.40;;;;;;;;;;5038289;28;20029;-75
2023/07/13 10:03:26;;;;;;;5.72;1.60;;;;;;;;;;5038184;28;20024;-75
2023/07/13 10:05:52;;;;;;;2.35;1.67;;;;;;;;;;5037816;28;20033;-75
2023/07/13 10:08:21;;;;;;;3.88;1.45;;;;;;;;;;5038448;28;20396;-75
2023/07/13 10:10:55;;;;;;;3.70;1.70;;;;;;;;;;5054648;28;20082;-76
2023/07/13 10:13:44;;;;;;;2.30;1.55;;;;;;;;;;5054623;28;20033;-75
2023/07/13 10:16:10;;;;;;;4.78;1.83;;;;;;;;;;5021325;28;20057;-76
2023/07/13 10:19:00;;;;;;;2.60;1.63;;;;;;;;;;5054486;28;20071;-75
2023/07/13 10:21:30;;;;;;;2.03;1.55;;;;;;;;;;5055708;28;20029;-75
2023/07/13 10:24:05;;;;;;;2.90;1.65;;;;;;;;;;5054370;28;20491;-75
2023/07/13 10:26:34;;;;;;;2.83;1.73;;;;;;;;;;5054174;28;20104;-75
2023/07/13 10:29:04;;;;;;;3.55;1.75;;;;;;;;;;5054697;28;20056;-76
2023/07/13 10:31:30;;;;;;;4.30;1.70;;;;;;;;;;5036543;28;20396;-76
2023/07/13 10:33:56;;;;;;;4.50;1.60;;;;;;;;;;5037358;28;20220;-76
2023/07/13 10:36:40;;;;;;;4.28;1.90;;;;;;;;;;5020882;28;20025;-75
2023/07/13 10:39:06;;;;;;;1.70;1.30;;;;;;;;;;5054274;28;20147;-77
2023/07/13 10:41:36;;;;;;;2.55;1.60;;;;;;;;;;5037812;28;20052;-76
2023/07/13 10:44:03;;;;;;;1.95;1.35;;;;;;;;;;5054159;28;20021;-75
2023/07/13 10:46:29;;;;;;;3.42;1.60;;;;;;;;;;5054225;28;20051;-76
2023/07/13 10:48:58;;;;;;;8.13;1.55;;;;;;;;;;5037744;28;20523;-76
2023/07/13 10:51:24;;;;;;;2.28;1.50;;;;;;;;;;5053817;28;20590;-76
2023/07/13 10:54:11;;;;;;;2.78;1.40;;;;;;;;;;5054082;28;20104;-75
2023/07/13 10:56:39;;;;;;;1.80;1.40;;;;;;;;;;5037406;28;20357;-76
2023/07/13 10:59:25;;;;;;;1.48;1.25;;;;;;;;;;5037296;28;20464;-76
2023/07/13 11:01:58;;;;;;;2.45;1.40;;;;;;;;;;5054969;28;20503;-76
2023/07/13 11:04:27;;;;;;;1.60;1.33;;;;;;;;;;5037287;28;20486;-76
2023/07/13 11:07:16;;;;;;;2.65;1.50;;;;;;;;;;5055742;28;20120;-77
2023/07/13 11:09:47;;;;;;;1.30;1.02;;;;;;;;;;5054164;28;20104;-76
2023/07/13 11:12:22;;;;;;;2.67;1.50;;;;;;;;;;5054923;28;20024;-76
2023/07/13 11:15:02;;;;;;;2.63;1.40;;;;;;;;;;5054715;28;20025;-76
2023/07/13 11:17:28;;;;;;;2.55;1.73;;;;;;;;;;5054838;28;20027;-77
2023/07/13 11:19:53;;;;;;;2.88;1.30;;;;;;;;;;5036207;28;20029;-76
2023/07/13 11:22:25;;;;;;;1.55;1.33;;;;;;;;;;5054569;28;20021;-75
2023/07/13 11:25:02;;;;;;;2.28;1.27;;;;;;;;;;5053238;28;20115;-76
2023/07/13 11:27:38;;;;;;;2.95;1.50;;;;;;;;;;5053122;28;20032;-76
2023/07/13 11:30:18;;;;;;;2.80;1.38;;;;;;;;;;5036834;28;20045;-76
2023/07/13 11:32:43;;;;;;;3.38;1.85;;;;;;;;;;5052921;28;20100;-76
2023/07/13 11:35:22;;;;;;;2.70;1.38;;;;;;;;;;5054373;28;20111;-77
2023/07/13 11:37:47;;;;;;;4.35;1.70;;;;;;;;;;5053153;28;20028;-76
2023/07/13 11:40:14;;;;;;;1.95;1.30;;;;;;;;;;5019652;28;20028;-76
2023/07/13 11:42:40;;;;;;;3.03;1.58;;;;;;;;;;5036115;28;20056;-76
2023/07/13 11:45:18;;;;;;;1.92;1.48;;;;;;;;;;5036091;28;20060;-77
2023/07/13 11:47:43;;;;;;;1.98;1.40;;;;;;;;;;5052729;28;20017;-76
2023/07/13 11:50:18;;;;;;;2.30;1.48;;;;;;;;;;5033605;28;20029;-76
2023/07/13 11:52:44;;;;;;;2.72;1.30;;;;;;;;;;5053722;28;20033;-76
2023/07/13 11:55:17;;;;;;;2.47;1.40;;;;;;;;;;5054130;28;20430;-77
2023/07/13 11:57:49;;;;;;;1.65;1.23;;;;;;;;;;5035857;28;20442;-77
2023/07/13 12:00:17;;;;;;;2.72;1.30;;;;;;;;;;5052126;28;20547;-77
2023/07/13 12:02:46;;;;;;;1.83;1.30;;;;;;;;;;5053819;28;20029;-76
2023/07/13 12:05:17;;;;;;;2.20;1.45;;;;;;;;;;5035547;28;20476;-77
2023/07/13 12:07:43;;;;;;;5.50;1.60;;;;;;;;;;5035173;28;20029;-77
2023/07/13 12:10:12;;;;;;;1.60;1.30;;;;;;;;;;5031765;28;20022;-77
2023/07/13 12:12:48;;;;;;;2.17;1.30;;;;;;;;;;5033138;28;20035;-76
2023/07/13 12:15:13;;;;;;;2.50;1.40;;;;;;;;;;5033791;28;20022;-77
2023/07/13 12:17:39;;;;;;;3.92;1.60;;;;;;;;;;5033858;28;20079;-77
2023/07/13 12:20:21;;;;;;;2.60;1.50;;;;;;;;;;5050654;28;20081;-77
2023/07/13 12:22:48;;;;;;;2.67;1.48;;;;;;;;;;5069185;28;20024;-77
2023/07/13 12:25:14;;;;;;;5.72;1.42;;;;;;;;;;5052099;28;20040;-77
2023/07/13 12:27:39;;;;;;;1.98;1.40;;;;;;;;;;5052163;28;20029;-77
2023/07/13 12:30:24;;;;;;;1.73;1.27;;;;;;;;;;5051609;28;20056;-77
2023/07/13 12:33:01;;;;;;;2.70;1.60;;;;;;;;;;5053125;28;20048;-77
2023/07/13 12:35:29;;;;;;;2.47;1.50;;;;;;;;;;5035535;28;20028;-77
2023/07/13 12:37:57;;;;;;;2.15;1.30;;;;;;;;;;5052119;28;20047;-77
2023/07/13 12:40:36;;;;;;;3.25;1.63;;;;;;;;;;4998977;28;20021;-77
2023/07/13 12:43:06;;;;;;;2.42;1.70;;;;;;;;;;5034157;28;20026;-77
2023/07/13 12:45:32;;;;;;;2.58;1.40;;;;;;;;;;5053244;28;20037;-78
2023/07/13 12:48:10;;;;;;;3.15;1.40;;;;;;;;;;5051678;28;20128;-77
2023/07/13 12:50:47;;;;;;;3.28;1.20;;;;;;;;;;5051722;28;20438;-78
2023/07/13 12:53:17;;;;;;;2.30;1.40;;;;;;;;;;5035998;28;20036;-77
2023/07/13 12:55:47;;;;;;;1.50;1.30;;;;;;;;;;5056074;28;20036;-77
2023/07/13 12:58:54;;;;;;;2.92;1.50;;;;;;;;;;5055874;28;20021;-77
2023/07/13 13:01:23;;;;;;;1.60;1.50;;;;;;;;;;4959709;28;20026;-77
2023/07/13 13:03:52;;;;;;;1.88;1.50;;;;;;;;;;4959955;28;20147;-77
2023/07/13 13:06:18;;;;;;;1.50;1.40;;;;;;;;;;4959861;28;20146;-77
2023/07/13 13:08:48;;;;;;;2.45;1.52;;;;;;;;;;4976057;28;20038;-77
2023/07/13 13:11:17;;;;;;;3.15;1.30;;;;;;;;;;4975661;28;20035;-77
2023/07/13 13:13:43;;;;;;;2.30;1.50;;;;;;;;;;4975793;28;20031;-77
2023/07/13 13:16:12;;;;;;;3.15;1.48;;;;;;;;;;4959709;28;20039;-77
2023/07/13 13:18:38;;;;;;;1.98;1.30;;;;;;;;;;4976377;28;20490;-76
2023/07/13 13:21:04;;;;;;;2.15;1.40;;;;;;;;;;4960873;28;20041;-76
2023/07/13 13:23:29;;;;;;;3.45;1.35;;;;;;;;;;4976237;28;20105;-76
2023/07/13 13:25:55;;;;;;;2.63;1.30;;;;;;;;;;4976052;28;20505;-76
2023/07/13 13:28:21;;;;;;;2.47;1.45;;;;;;;;;;4959787;28;20101;-75
2023/07/13 13:30:48;;;;;;;2.90;1.48;;;;;;;;;;4959778;28;20410;-77
2023/07/13 13:33:17;;;;;;;2.67;1.27;;;;;;;;;;4959648;28;20150;-75
2023/07/13 13:35:43;;;;;;;2.63;1.33;;;;;;;;;;5017066;28;20112;-74
2023/07/13 13:38:16;;;;;;;2.00;1.25;;;;;;;;;;5038377;28;20124;-74
2023/07/13 13:40:43;;;;;;;3.13;1.60;;;;;;;;;;5038335;28;20101;-75
2023/07/13 13:43:16;;;;;;;3.00;1.42;;;;;;;;;;5038367;28;20081;-76
2023/07/13 13:45:42;;;;;;;1.73;1.35;;;;;;;;;;5056239;28;20590;-77
2023/07/13 13:48:17;;;;;;;2.90;1.70;;;;;;;;;;5035700;28;20116;-77
2023/07/13 13:50:42;;;;;;;3.70;1.45;;;;;;;;;;5054591;28;20409;-76
2023/07/13 13:53:13;;;;;;;1.77;1.50;;;;;;;;;;5021500;28;20048;-77
2023/07/13 13:55:41;;;;;;;2.42;1.40;;;;;;;;;;5038225;28;20043;-78
2023/07/13 13:58:07;;;;;;;2.75;1.50;;;;;;;;;;5056118;28;20033;-77
2023/07/13 14:00:33;;;;;;;2.35;1.58;;;;;;;;;;5037959;28;20025;-77
2023/07/13 14:02:59;;;;;;;2.10;1.50;;;;;;;;;;5037577;28;20024;-76
2023/07/13 14:05:28;;;;;;;1.95;1.30;;;;;;;;;;5037824;28;20395;-77
2023/07/13 14:07:54;;;;;;;3.92;1.50;;;;;;;;;;5055012;28;20082;-76
2023/07/13 14:10:20;;;;;;;4.47;1.40;;;;;;;;;;5037830;28;20025;-77
2023/07/13 14:12:50;;;;;;;3.20;1.70;;;;;;;;;;5055320;28;20108;-76
2023/07/13 14:15:30;;;;;;;3.92;1.30;;;;;;;;;;5037537;28;20049;-76
2023/07/13 14:17:57;;;;;;;2.75;1.60;;;;;;;;;;5055384;28;20029;-78
2023/07/13 14:20:24;;;;;;;2.97;1.35;;;;;;;;;;5037603;28;20027;-79
2023/07/13 14:22:53;;;;;;;2.85;1.58;;;;;;;;;;5037374;28;20025;-79
2023/07/13 14:25:19;;;;;;;2.42;1.80;;;;;;;;;;5037553;28;20102;-75
2023/07/13 14:27:48;;;;;;;2.40;1.30;;;;;;;;;;5054403;28;20027;-78
2023/07/13 14:30:19;;;;;;;2.42;1.60;;;;;;;;;;5053941;28;20045;-78
2023/07/13 14:32:45;;;;;;;1.70;1.38;;;;;;;;;;5037368;28;20033;-78
2023/07/13 14:35:15;;;;;;;1.65;1.35;;;;;;;;;;5037253;28;20460;-78
2023/07/13 14:37:41;;;;;;;1.63;1.38;;;;;;;;;;5037403;28;20087;-79
2023/07/13 14:40:15;;;;;;;4.10;1.33;;;;;;;;;;5037255;28;20479;-78
2023/07/13 14:42:40;;;;;;;4.40;1.48;;;;;;;;;;5037056;28;20032;-78
2023/07/13 14:45:12;;;;;;;2.58;1.60;;;;;;;;;;5037100;28;20033;-78
2023/07/13 14:47:38;;;;;;;3.92;1.58;;;;;;;;;;5055142;28;20017;-78